sensor_id;sensor_type;location;lat;lon;timestamp;pressure;altitude;pressure_sealevel;temperature;humidity
62103;BME280;48077;48.104;11.702;2022-09-09T00:02:27;95307.47;;;12.25;94.27
62103;BME280;48077;48.104;11.702;2022-09-09T00:07:21;95301.50;;;12.18;95.00
62103;BME280;48077;48.104;11.702;2022-09-09T00:10:06;95297.72;;;12.13;94.76
62103;BME280;48077;48.104;11.702;2022-09-09T00:12:43;95303.94;;;12.19;94.32
62103;BME280;48077;48.104;11.702;2022-09-09T00:15:14;95305.72;;;12.13;94.79
62103;BME280;48077;48.104;11.702;2022-09-09T00:22:57;95302.50;;;12.11;94.05
62103;BME280;48077;48.104;11.702;2022-09-09T00:25:30;95302.25;;;12.13;94.03
62103;BME280;48077;48.104;11.702;2022-09-09T00:27:57;95303.00;;;12.08;93.66
62103;BME280;48077;48.104;11.702;2022-09-09T00:30:26;95295.88;;;11.97;94.01
62103;BME280;48077;48.104;11.702;2022-09-09T00:32:54;95300.44;;;11.97;94.62
62103;BME280;48077;48.104;11.702;2022-09-09T00:35:22;95300.19;;;11.98;94.56
62103;BME280;48077;48.104;11.702;2022-09-09T00:37:48;95304.47;;;11.99;95.07
62103;BME280;48077;48.104;11.702;2022-09-09T00:40:53;95303.72;;;12.04;94.96
62103;BME280;48077;48.104;11.702;2022-09-09T00:43:32;95313.69;;;12.08;95.41
62103;BME280;48077;48.104;11.702;2022-09-09T00:51:22;95304.66;;;12.31;94.74
62103;BME280;48077;48.104;11.702;2022-09-09T00:54:10;95316.50;;;12.41;95.09
62103;BME280;48077;48.104;11.702;2022-09-09T00:56:47;95314.72;;;12.46;94.93
62103;BME280;48077;48.104;11.702;2022-09-09T00:59:27;95308.88;;;12.49;95.70
62103;BME280;48077;48.104;11.702;2022-09-09T01:01:53;95319.38;;;12.56;95.68
62103;BME280;48077;48.104;11.702;2022-09-09T01:04:24;95324.00;;;12.61;95.95
62103;BME280;48077;48.104;11.702;2022-09-09T01:06:57;95306.25;;;12.54;96.53
62103;BME280;48077;48.104;11.702;2022-09-09T01:12:23;95317.69;;;12.72;95.84
62103;BME280;48077;48.104;11.702;2022-09-09T01:14:49;95319.06;;;12.74;95.82
62103;BME280;48077;48.104;11.702;2022-09-09T01:17:24;95314.22;;;12.71;95.82
62103;BME280;48077;48.104;11.702;2022-09-09T01:22:44;95310.34;;;12.84;95.61
62103;BME280;48077;48.104;11.702;2022-09-09T01:28:21;95295.94;;;12.90;95.51
62103;BME280;48077;48.104;11.702;2022-09-09T01:30:46;95302.97;;;12.96;95.64
62103;BME280;48077;48.104;11.702;2022-09-09T01:33:13;95299.50;;;12.96;95.86
62103;BME280;48077;48.104;11.702;2022-09-09T01:35:48;95307.00;;;12.99;95.92
62103;BME280;48077;48.104;11.702;2022-09-09T01:38:17;95307.56;;;13.01;95.90
62103;BME280;48077;48.104;11.702;2022-09-09T01:40:41;95302.84;;;13.08;95.63
62103;BME280;48077;48.104;11.702;2022-09-09T01:43:05;95309.31;;;13.12;95.60
62103;BME280;48077;48.104;11.702;2022-09-09T01:45:30;95311.22;;;13.17;95.94
62103;BME280;48077;48.104;11.702;2022-09-09T01:47:54;95307.47;;;13.18;95.78
62103;BME280;48077;48.104;11.702;2022-09-09T01:50:18;95309.03;;;13.14;95.87
62103;BME280;48077;48.104;11.702;2022-09-09T01:52:44;95314.66;;;13.12;96.69
62103;BME280;48077;48.104;11.702;2022-09-09T01:55:09;95306.63;;;13.12;96.68
62103;BME280;48077;48.104;11.702;2022-09-09T02:00:11;95309.56;;;13.11;97.28
62103;BME280;48077;48.104;11.702;2022-09-09T02:02:41;95293.69;;;13.04;97.34
62103;BME280;48077;48.104;11.702;2022-09-09T02:07:46;95304.22;;;13.16;97.35
62103;BME280;48077;48.104;11.702;2022-09-09T02:10:20;95304.22;;;13.16;97.34
62103;BME280;48077;48.104;11.702;2022-09-09T02:12:47;95307.66;;;13.11;97.06
62103;BME280;48077;48.104;11.702;2022-09-09T02:15:28;95299.88;;;13.10;97.22
62103;BME280;48077;48.104;11.702;2022-09-09T02:17:56;95292.13;;;13.08;97.51
62103;BME280;48077;48.104;11.702;2022-09-09T02:20:21;95281.31;;;12.98;97.89
62103;BME280;48077;48.104;11.702;2022-09-09T02:22:49;95293.41;;;13.06;97.63
62103;BME280;48077;48.104;11.702;2022-09-09T02:25:15;95293.41;;;13.06;97.67
62103;BME280;48077;48.104;11.702;2022-09-09T02:27:41;95290.50;;;13.07;97.62
62103;BME280;48077;48.104;11.702;2022-09-09T02:30:06;95303.94;;;13.12;97.89
62103;BME280;48077;48.104;11.702;2022-09-09T02:32:32;95292.94;;;13.09;97.92
62103;BME280;48077;48.104;11.702;2022-09-09T02:35:02;95298.31;;;13.14;97.76
62103;BME280;48077;48.104;11.702;2022-09-09T02:37:27;95300.78;;;13.21;97.51
62103;BME280;48077;48.104;11.702;2022-09-09T02:39:53;95292.47;;;13.17;96.97
62103;BME280;48077;48.104;11.702;2022-09-09T02:42:17;95295.44;;;13.21;97.13
62103;BME280;48077;48.104;11.702;2022-09-09T02:44:41;95282.53;;;13.12;97.42
62103;BME280;48077;48.104;11.702;2022-09-09T02:47:30;95302.09;;;13.18;97.03
62103;BME280;48077;48.104;11.702;2022-09-09T02:55:44;95289.81;;;13.22;96.49
62103;BME280;48077;48.104;11.702;2022-09-09T02:58:13;95286.09;;;13.23;96.20
62103;BME280;48077;48.104;11.702;2022-09-09T03:00:40;95284.72;;;13.21;95.82
62103;BME280;48077;48.104;11.702;2022-09-09T03:03:04;95287.16;;;13.22;95.48
62103;BME280;48077;48.104;11.702;2022-09-09T03:05:27;95280.47;;;13.25;95.36
62103;BME280;48077;48.104;11.702;2022-09-09T03:07:51;95285.69;;;13.31;95.18
62103;BME280;48077;48.104;11.702;2022-09-09T03:10:14;95286.13;;;13.28;95.58
62103;BME280;48077;48.104;11.702;2022-09-09T03:12:37;95282.44;;;13.29;95.73
62103;BME280;48077;48.104;11.702;2022-09-09T03:15:02;95270.66;;;13.30;95.69
62103;BME280;48077;48.104;11.702;2022-09-09T03:17:25;95280.03;;;13.33;95.59
62103;BME280;48077;48.104;11.702;2022-09-09T03:19:51;95267.47;;;13.33;95.77
62103;BME280;48077;48.104;11.702;2022-09-09T03:22:15;95270.72;;;13.35;95.60
62103;BME280;48077;48.104;11.702;2022-09-09T03:24:39;95276.31;;;13.34;95.66
62103;BME280;48077;48.104;11.702;2022-09-09T03:27:03;95274.13;;;13.31;95.60
62103;BME280;48077;48.104;11.702;2022-09-09T03:29:26;95273.09;;;13.32;95.31
62103;BME280;48077;48.104;11.702;2022-09-09T03:31:50;95271.94;;;13.28;95.54
62103;BME280;48077;48.104;11.702;2022-09-09T03:34:14;95269.75;;;13.25;95.62
62103;BME280;48077;48.104;11.702;2022-09-09T03:36:37;95272.72;;;13.23;95.92
62103;BME280;48077;48.104;11.702;2022-09-09T03:39:01;95267.09;;;13.25;95.88
62103;BME280;48077;48.104;11.702;2022-09-09T03:41:26;95269.75;;;13.25;96.00
62103;BME280;48077;48.104;11.702;2022-09-09T03:43:53;95276.44;;;13.22;96.05
62103;BME280;48077;48.104;11.702;2022-09-09T03:46:17;95268.66;;;13.21;95.96
62103;BME280;48077;48.104;11.702;2022-09-09T03:48:41;95269.16;;;13.18;96.18
62103;BME280;48077;48.104;11.702;2022-09-09T03:51:04;95256.22;;;13.04;96.21
62103;BME280;48077;48.104;11.702;2022-09-09T03:53:28;95260.19;;;13.02;96.35
62103;BME280;48077;48.104;11.702;2022-09-09T03:55:53;95274.66;;;13.01;97.10
62103;BME280;48077;48.104;11.702;2022-09-09T03:58:23;95268.19;;;12.96;97.07
62103;BME280;48077;48.104;11.702;2022-09-09T04:00:57;95264.63;;;12.91;97.22
62103;BME280;48077;48.104;11.702;2022-09-09T04:03:22;95255.72;;;12.85;97.22
62103;BME280;48077;48.104;11.702;2022-09-09T04:05:54;95262.47;;;12.88;97.69
62103;BME280;48077;48.104;11.702;2022-09-09T04:08:19;95265.94;;;12.88;97.71
62103;BME280;48077;48.104;11.702;2022-09-09T04:10:44;95271.06;;;12.90;97.84
62103;BME280;48077;48.104;11.702;2022-09-09T04:13:09;95272.63;;;12.86;97.91
62103;BME280;48077;48.104;11.702;2022-09-09T04:15:32;95273.34;;;12.81;98.17
62103;BME280;48077;48.104;11.702;2022-09-09T04:17:56;95261.50;;;12.72;98.26
62103;BME280;48077;48.104;11.702;2022-09-09T04:20:19;95266.84;;;12.72;98.94
62103;BME280;48077;48.104;11.702;2022-09-09T04:22:42;95258.81;;;12.72;99.56
62103;BME280;48077;48.104;11.702;2022-09-09T04:25:06;95264.19;;;12.72;99.36
62103;BME280;48077;48.104;11.702;2022-09-09T04:27:30;95256.47;;;12.75;99.61
62103;BME280;48077;48.104;11.702;2022-09-09T04:29:53;95253.28;;;12.79;99.21
62103;BME280;48077;48.104;11.702;2022-09-09T04:32:16;95249.00;;;12.78;99.11
62103;BME280;48077;48.104;11.702;2022-09-09T04:34:40;95238.22;;;12.72;99.22
62103;BME280;48077;48.104;11.702;2022-09-09T04:37:04;95236.38;;;12.73;99.62
62103;BME280;48077;48.104;11.702;2022-09-09T04:39:27;95243.88;;;12.76;99.43
62103;BME280;48077;48.104;11.702;2022-09-09T04:41:51;95240.91;;;12.72;99.11
62103;BME280;48077;48.104;11.702;2022-09-09T04:44:14;95241.66;;;12.68;99.22
62103;BME280;48077;48.104;11.702;2022-09-09T04:46:37;95252.13;;;12.69;99.56
62103;BME280;48077;48.104;11.702;2022-09-09T04:49:01;95253.47;;;12.72;99.62
62103;BME280;48077;48.104;11.702;2022-09-09T04:51:24;95249.75;;;12.73;99.43
62103;BME280;48077;48.104;11.702;2022-09-09T04:53:48;95239.22;;;12.66;99.45
62103;BME280;48077;48.104;11.702;2022-09-09T04:56:18;95245.69;;;12.70;99.58
62103;BME280;48077;48.104;11.702;2022-09-09T04:58:42;95241.97;;;12.71;99.73
62103;BME280;48077;48.104;11.702;2022-09-09T05:01:11;95238.50;;;12.71;99.71
62103;BME280;48077;48.104;11.702;2022-09-09T05:03:35;95237.19;;;12.73;99.69
62103;BME280;48077;48.104;11.702;2022-09-09T05:06:19;95239.88;;;12.79;99.47
62103;BME280;48077;48.104;11.702;2022-09-09T05:08:43;95244.75;;;12.82;99.44
62103;BME280;48077;48.104;11.702;2022-09-09T05:11:17;95245.03;;;12.85;99.56
62103;BME280;48077;48.104;11.702;2022-09-09T05:13:41;95249.34;;;12.86;99.22
62103;BME280;48077;48.104;11.702;2022-09-09T05:16:04;95245.91;;;12.91;98.84
62103;BME280;48077;48.104;11.702;2022-09-09T05:18:28;95249.69;;;12.95;98.56
62103;BME280;48077;48.104;11.702;2022-09-09T05:20:51;95255.66;;;13.02;98.28
62103;BME280;48077;48.104;11.702;2022-09-09T05:23:15;95253.53;;;13.04;98.08
62103;BME280;48077;48.104;11.702;2022-09-09T05:25:38;95260.50;;;13.05;98.28
62103;BME280;48077;48.104;11.702;2022-09-09T05:28:02;95263.47;;;13.09;98.34
62103;BME280;48077;48.104;11.702;2022-09-09T05:30:25;95270.97;;;13.07;98.81
62103;BME280;48077;48.104;11.702;2022-09-09T05:32:49;95255.34;;;12.99;99.15
62103;BME280;48077;48.104;11.702;2022-09-09T05:35:13;95265.34;;;13.08;99.31
62103;BME280;48077;48.104;11.702;2022-09-09T05:37:36;95270.72;;;13.08;99.67
62103;BME280;48077;48.104;11.702;2022-09-09T05:40:00;95272.34;;;13.14;99.39
62103;BME280;48077;48.104;11.702;2022-09-09T05:42:24;95272.09;;;13.16;99.40
62103;BME280;48077;48.104;11.702;2022-09-09T05:44:47;95264.88;;;13.16;99.44
62103;BME280;48077;48.104;11.702;2022-09-09T05:47:10;95268.41;;;13.22;99.14
62103;BME280;48077;48.104;11.702;2022-09-09T05:49:34;95265.72;;;13.22;98.94
62103;BME280;48077;48.104;11.702;2022-09-09T05:51:58;95270.28;;;13.22;98.95
62103;BME280;48077;48.104;11.702;2022-09-09T05:54:21;95263.59;;;13.24;99.24
62103;BME280;48077;48.104;11.702;2022-09-09T05:56:45;95266.84;;;13.26;98.85
62103;BME280;48077;48.104;11.702;2022-09-09T05:59:08;95264.53;;;13.35;98.45
62103;BME280;48077;48.104;11.702;2022-09-09T06:01:35;95266.72;;;13.38;98.49
62103;BME280;48077;48.104;11.702;2022-09-09T06:03:58;95258.16;;;13.41;98.03
62103;BME280;48077;48.104;11.702;2022-09-09T06:06:24;95266.25;;;13.51;98.00
62103;BME280;48077;48.104;11.702;2022-09-09T06:08:51;95267.38;;;13.55;98.03
62103;BME280;48077;48.104;11.702;2022-09-09T06:11:20;95263.63;;;13.56;97.93
62103;BME280;48077;48.104;11.702;2022-09-09T06:13:44;95274.69;;;13.65;97.59
62103;BME280;48077;48.104;11.702;2022-09-09T06:16:10;95278.47;;;13.69;97.46
62103;BME280;48077;48.104;11.702;2022-09-09T06:18:35;95271.78;;;13.72;97.09
62103;BME280;48077;48.104;11.702;2022-09-09T06:21:03;95278.75;;;13.73;97.38
62103;BME280;48077;48.104;11.702;2022-09-09T06:23:27;95278.75;;;13.73;97.84
62103;BME280;48077;48.104;11.702;2022-09-09T06:25:51;95280.38;;;13.74;98.09
62103;BME280;48077;48.104;11.702;2022-09-09T06:28:23;95276.34;;;13.71;98.59
62103;BME280;48077;48.104;11.702;2022-09-09T06:30:48;95272.03;;;13.70;98.95
62103;BME280;48077;48.104;11.702;2022-09-09T06:33:11;95274.44;;;13.67;98.79
62103;BME280;48077;48.104;11.702;2022-09-09T06:35:34;95277.38;;;13.65;98.38
62103;BME280;48077;48.104;11.702;2022-09-09T06:37:58;95274.97;;;13.69;97.50
62103;BME280;48077;48.104;11.702;2022-09-09T06:40:21;95284.94;;;13.79;97.49
62103;BME280;48077;48.104;11.702;2022-09-09T06:42:45;95273.66;;;13.76;97.36
62103;BME280;48077;48.104;11.702;2022-09-09T06:45:08;95287.69;;;13.84;97.13
62103;BME280;48077;48.104;11.702;2022-09-09T06:47:32;95282.03;;;13.85;96.68
62103;BME280;48077;48.104;11.702;2022-09-09T06:49:56;95294.72;;;13.95;96.62
62103;BME280;48077;48.104;11.702;2022-09-09T06:52:20;95290.19;;;14.01;96.90
62103;BME280;48077;48.104;11.702;2022-09-09T06:54:43;95288.06;;;14.03;96.94
62103;BME280;48077;48.104;11.702;2022-09-09T06:57:07;95280.03;;;14.08;97.02
62103;BME280;48077;48.104;11.702;2022-09-09T06:59:30;95288.38;;;14.11;95.84
62103;BME280;48077;48.104;11.702;2022-09-09T07:01:54;95284.09;;;14.15;96.41
62103;BME280;48077;48.104;11.702;2022-09-09T07:04:18;95287.09;;;14.19;97.21
62103;BME280;48077;48.104;11.702;2022-09-09T07:06:43;95290.03;;;14.17;97.21
62103;BME280;48077;48.104;11.702;2022-09-09T07:09:10;95294.59;;;14.22;97.54
62103;BME280;48077;48.104;11.702;2022-09-09T07:11:44;95290.56;;;14.20;97.43
62103;BME280;48077;48.104;11.702;2022-09-09T07:14:08;95289.53;;;14.26;97.40
62103;BME280;48077;48.104;11.702;2022-09-09T07:16:31;95286.06;;;14.30;97.71
62103;BME280;48077;48.104;11.702;2022-09-09T07:18:56;95285.81;;;14.32;97.76
62103;BME280;48077;48.104;11.702;2022-09-09T07:21:20;95290.13;;;14.38;97.41
62103;BME280;48077;48.104;11.702;2022-09-09T07:23:44;95296.03;;;14.40;98.20
62103;BME280;48077;48.104;11.702;2022-09-09T07:26:13;95300.31;;;14.41;98.76
62103;BME280;48077;48.104;11.702;2022-09-09T07:28:37;95309.19;;;14.42;98.93
62103;BME280;48077;48.104;11.702;2022-09-09T07:31:02;95304.63;;;14.42;99.48
62103;BME280;48077;48.104;11.702;2022-09-09T07:33:26;95304.34;;;14.38;99.39
62103;BME280;48077;48.104;11.702;2022-09-09T07:35:50;95309.16;;;14.31;99.21
62103;BME280;48077;48.104;11.702;2022-09-09T07:38:14;95325.50;;;14.30;99.29
62103;BME280;48077;48.104;11.702;2022-09-09T07:40:37;95342.38;;;14.25;98.32
62103;BME280;48077;48.104;11.702;2022-09-09T07:43:01;95352.50;;;14.18;98.20
62103;BME280;48077;48.104;11.702;2022-09-09T07:45:25;95355.75;;;14.20;98.48
62103;BME280;48077;48.104;11.702;2022-09-09T07:47:51;95352.25;;;14.20;99.13
62103;BME280;48077;48.104;11.702;2022-09-09T07:50:15;95361.41;;;14.24;97.88
62103;BME280;48077;48.104;11.702;2022-09-09T07:52:39;95365.19;;;14.28;98.70
62103;BME280;48077;48.104;11.702;2022-09-09T07:55:02;95364.94;;;14.34;99.18
62103;BME280;48077;48.104;11.702;2022-09-09T07:57:28;95367.13;;;14.37;98.69
62103;BME280;48077;48.104;11.702;2022-09-09T07:59:53;95367.69;;;14.40;99.15
62103;BME280;48077;48.104;11.702;2022-09-09T08:02:17;95368.25;;;14.47;98.69
62103;BME280;48077;48.104;11.702;2022-09-09T08:04:41;95372.06;;;14.56;98.52
62103;BME280;48077;48.104;11.702;2022-09-09T08:07:04;95374.53;;;14.63;98.81
62103;BME280;48077;48.104;11.702;2022-09-09T08:09:28;95361.38;;;14.61;99.34
62103;BME280;48077;48.104;11.702;2022-09-09T08:11:56;95363.31;;;14.71;99.10
62103;BME280;48077;48.104;11.702;2022-09-09T08:14:20;95373.50;;;14.74;98.71
62103;BME280;48077;48.104;11.702;2022-09-09T08:16:46;95380.22;;;14.76;97.85
62103;BME280;48077;48.104;11.702;2022-09-09T08:19:11;95361.44;;;14.71;97.55
62103;BME280;48077;48.104;11.702;2022-09-09T08:21:36;95378.38;;;14.87;96.17
62103;BME280;48077;48.104;11.702;2022-09-09T08:24:01;95380.56;;;14.95;96.21
62103;BME280;48077;48.104;11.702;2022-09-09T08:26:31;95376.28;;;14.94;95.94
62103;BME280;48077;48.104;11.702;2022-09-09T08:28:57;95378.72;;;15.01;95.69
62103;BME280;48077;48.104;11.702;2022-09-09T08:31:23;95385.19;;;15.05;94.39
62103;BME280;48077;48.104;11.702;2022-09-09T08:33:47;95393.25;;;15.10;94.48
62103;BME280;48077;48.104;11.702;2022-09-09T08:36:14;95398.91;;;15.14;93.43
62103;BME280;48077;48.104;11.702;2022-09-09T08:38:41;95396.50;;;15.17;93.33
62103;BME280;48077;48.104;11.702;2022-09-09T08:46:52;95400.78;;;15.18;93.76
62103;BME280;48077;48.104;11.702;2022-09-09T08:49:42;95400.53;;;15.20;94.24
62103;BME280;48077;48.104;11.702;2022-09-09T08:52:16;95397.56;;;15.16;94.37
62103;BME280;48077;48.104;11.702;2022-09-09T08:54:41;95389.00;;;15.20;94.08
62103;BME280;48077;48.104;11.702;2022-09-09T08:57:12;95399.78;;;15.30;93.78
62103;BME280;48077;48.104;11.702;2022-09-09T08:59:37;95387.41;;;15.29;93.89
62103;BME280;48077;48.104;11.702;2022-09-09T09:07:53;95399.78;;;15.30;93.68
62103;BME280;48077;48.104;11.702;2022-09-09T09:10:50;95397.59;;;15.27;94.56
62103;BME280;48077;48.104;11.702;2022-09-09T09:13:30;95396.25;;;15.24;95.27
62103;BME280;48077;48.104;11.702;2022-09-09T09:16:10;95391.94;;;15.18;95.52
62103;BME280;48077;48.104;11.702;2022-09-09T09:18:37;95386.31;;;15.20;96.14
62103;BME280;48077;48.104;11.702;2022-09-09T09:21:22;95386.81;;;15.16;96.16
62103;BME280;48077;48.104;11.702;2022-09-09T09:23:57;95383.88;;;15.18;95.77
62103;BME280;48077;48.104;11.702;2022-09-09T09:26:21;95389.00;;;15.25;95.03
62103;BME280;48077;48.104;11.702;2022-09-09T09:28:46;95393.06;;;15.32;94.41
62103;BME280;48077;48.104;11.702;2022-09-09T09:31:12;95393.88;;;15.38;95.34
62103;BME280;48077;48.104;11.702;2022-09-09T09:33:54;95389.84;;;15.41;95.84
62103;BME280;48077;48.104;11.702;2022-09-09T09:36:41;95386.09;;;15.42;94.88
62103;BME280;48077;48.104;11.702;2022-09-09T09:39:03;95405.75;;;15.52;94.20
62103;BME280;48077;48.104;11.702;2022-09-09T09:41:39;95401.97;;;15.53;94.16
62103;BME280;48077;48.104;11.702;2022-09-09T09:44:04;95397.94;;;15.51;92.82
62103;BME280;48077;48.104;11.702;2022-09-09T09:46:28;95402.00;;;15.58;92.66
62103;BME280;48077;48.104;11.702;2022-09-09T09:49:02;95404.16;;;15.67;92.51
62103;BME280;48077;48.104;11.702;2022-09-09T09:51:26;95406.88;;;15.72;93.35
62103;BME280;48077;48.104;11.702;2022-09-09T09:53:50;95403.91;;;15.73;92.50
62103;BME280;48077;48.104;11.702;2022-09-09T09:56:15;95409.56;;;15.72;91.35
62103;BME280;48077;48.104;11.702;2022-09-09T10:04:32;95400.63;;;15.66;91.21
62103;BME280;48077;48.104;11.702;2022-09-09T10:06:37;95404.19;;;15.77;91.21
62103;BME280;48077;48.104;11.702;2022-09-09T10:09:04;95398.28;;;15.75;90.79
62103;BME280;48077;48.104;11.702;2022-09-09T10:14:19;95406.34;;;15.95;89.08
62103;BME280;48077;48.104;11.702;2022-09-09T10:19:33;95397.50;;;16.00;87.91
62103;BME280;48077;48.104;11.702;2022-09-09T10:30:33;95399.63;;;16.03;87.75
62103;BME280;48077;48.104;11.702;2022-09-09T10:35:57;95401.78;;;15.96;84.97
62103;BME280;48077;48.104;11.702;2022-09-09T10:38:40;95384.03;;;15.85;85.57
62103;BME280;48077;48.104;11.702;2022-09-09T10:52:15;95397.44;;;16.46;83.80
62103;BME280;48077;48.104;11.702;2022-09-09T10:57:39;95408.94;;;16.77;82.74
62103;BME280;48077;48.104;11.702;2022-09-09T11:00:06;95401.66;;;16.93;81.76
62103;BME280;48077;48.104;11.702;2022-09-09T11:02:38;95410.53;;;17.04;80.72
62103;BME280;48077;48.104;11.702;2022-09-09T11:07:44;95410.78;;;17.03;80.04
62103;BME280;48077;48.104;11.702;2022-09-09T11:13:20;95410.75;;;17.08;80.73
62103;BME280;48077;48.104;11.702;2022-09-09T11:15:56;95413.19;;;17.09;79.97
62103;BME280;48077;48.104;11.702;2022-09-09T11:18:23;95411.56;;;17.08;80.32
62103;BME280;48077;48.104;11.702;2022-09-09T11:20:56;95408.88;;;17.03;77.62
62103;BME280;48077;48.104;11.702;2022-09-09T11:23:38;95415.63;;;17.01;78.22
62103;BME280;48077;48.104;11.702;2022-09-09T11:26:04;95407.81;;;16.99;78.11
62103;BME280;48077;48.104;11.702;2022-09-09T11:29:27;95409.47;;;16.95;76.19
62103;BME280;48077;48.104;11.702;2022-09-09T11:32:23;95402.47;;;16.89;76.37
62103;BME280;48077;48.104;11.702;2022-09-09T11:35:01;95403.81;;;16.96;77.24
62103;BME280;48077;48.104;11.702;2022-09-09T11:40:27;95400.78;;;17.08;75.64
62103;BME280;48077;48.104;11.702;2022-09-09T11:43:13;95399.97;;;17.13;75.19
62103;BME280;48077;48.104;11.702;2022-09-09T11:45:39;95403.97;;;17.20;74.17
62103;BME280;48077;48.104;11.702;2022-09-09T11:48:04;95400.47;;;17.25;74.05
62103;BME280;48077;48.104;11.702;2022-09-09T11:50:30;95393.13;;;17.31;74.36
62103;BME280;48077;48.104;11.702;2022-09-09T11:55:37;95400.94;;;17.37;72.54
62103;BME280;48077;48.104;11.702;2022-09-09T11:58:04;95396.63;;;17.36;73.30
62103;BME280;48077;48.104;11.702;2022-09-09T12:00:41;95399.25;;;17.47;74.51
62103;BME280;48077;48.104;11.702;2022-09-09T12:03:05;95397.88;;;17.54;73.85
62103;BME280;48077;48.104;11.702;2022-09-09T12:05:41;95395.13;;;17.59;73.77
62103;BME280;48077;48.104;11.702;2022-09-09T12:08:06;95390.16;;;17.77;73.46
62103;BME280;48077;48.104;11.702;2022-09-09T12:10:33;95393.91;;;17.86;74.21
62103;BME280;48077;48.104;11.702;2022-09-09T12:13:19;95395.78;;;17.80;73.65
62103;BME280;48077;48.104;11.702;2022-09-09T12:15:48;95400.41;;;17.75;73.24
62103;BME280;48077;48.104;11.702;2022-09-09T12:18:21;95385.97;;;17.60;72.76
62103;BME280;48077;48.104;11.702;2022-09-09T12:20:54;95399.44;;;17.60;73.29
62103;BME280;48077;48.104;11.702;2022-09-09T12:26:07;95390.00;;;17.63;74.13
62103;BME280;48077;48.104;11.702;2022-09-09T12:28:58;95397.50;;;17.66;73.64
62103;BME280;48077;48.104;11.702;2022-09-09T12:31:34;95386.19;;;17.69;73.87
62103;BME280;48077;48.104;11.702;2022-09-09T12:34:11;95397.44;;;17.76;74.07
62103;BME280;48077;48.104;11.702;2022-09-09T12:36:37;95373.69;;;17.84;73.23
62103;BME280;48077;48.104;11.702;2022-09-09T12:39:33;95373.63;;;17.94;73.81
62103;BME280;48077;48.104;11.702;2022-09-09T12:41:54;95373.03;;;17.97;72.61
62103;BME280;48077;48.104;11.702;2022-09-09T12:44:19;95367.63;;;18.02;71.28
62103;BME280;48077;48.104;11.702;2022-09-09T12:46:44;95373.44;;;18.14;72.12
62103;BME280;48077;48.104;11.702;2022-09-09T12:49:34;95376.88;;;18.25;70.67
62103;BME280;48077;48.104;11.702;2022-09-09T12:51:58;95381.88;;;18.37;70.28
62103;BME280;48077;48.104;11.702;2022-09-09T12:54:23;95365.91;;;18.40;69.44
62103;BME280;48077;48.104;11.702;2022-09-09T12:56:47;95367.75;;;18.45;69.74
62103;BME280;48077;48.104;11.702;2022-09-09T12:59:23;95370.69;;;18.49;68.70
62103;BME280;48077;48.104;11.702;2022-09-09T13:01:55;95365.22;;;18.54;69.07
62103;BME280;48077;48.104;11.702;2022-09-09T13:04:20;95348.50;;;18.52;69.81
62103;BME280;48077;48.104;11.702;2022-09-09T13:06:45;95360.50;;;18.94;67.82
62103;BME280;48077;48.104;11.702;2022-09-09T13:09:08;95351.53;;;18.98;66.55
62103;BME280;48077;48.104;11.702;2022-09-09T13:11:40;95348.88;;;18.93;67.50
62103;BME280;48077;48.104;11.702;2022-09-09T13:14:05;95354.91;;;18.85;66.83
62103;BME280;48077;48.104;11.702;2022-09-09T13:16:31;95350.38;;;18.80;66.91
62103;BME280;48077;48.104;11.702;2022-09-09T13:18:56;95349.16;;;18.68;66.93
62103;BME280;48077;48.104;11.702;2022-09-09T13:21:19;95345.69;;;18.62;67.44
62103;BME280;48077;48.104;11.702;2022-09-09T13:23:48;95339.56;;;18.56;66.53
62103;BME280;48077;48.104;11.702;2022-09-09T13:26:26;95345.41;;;18.64;66.21
62103;BME280;48077;48.104;11.702;2022-09-09T13:28:51;95320.66;;;18.56;66.67
62103;BME280;48077;48.104;11.702;2022-09-09T13:31:42;95340.78;;;18.69;66.85
62103;BME280;48077;48.104;11.702;2022-09-09T13:34:27;95326.06;;;18.56;65.58
62103;BME280;48077;48.104;11.702;2022-09-09T13:36:51;95329.59;;;18.52;66.93
62103;BME280;48077;48.104;11.702;2022-09-09T13:39:17;95336.16;;;18.46;68.79
62103;BME280;48077;48.104;11.702;2022-09-09T13:41:43;95333.84;;;18.34;68.24
62103;BME280;48077;48.104;11.702;2022-09-09T13:44:21;95335.53;;;18.30;66.94
62103;BME280;48077;48.104;11.702;2022-09-09T13:46:46;95328.38;;;18.15;65.85
62103;BME280;48077;48.104;11.702;2022-09-09T13:51:39;95324.75;;;17.95;67.24
62103;BME280;48077;48.104;11.702;2022-09-09T13:54:06;95324.56;;;17.87;68.03
62103;BME280;48077;48.104;11.702;2022-09-09T13:56:33;95327.56;;;17.80;68.54
62103;BME280;48077;48.104;11.702;2022-09-09T13:58:57;95314.22;;;17.65;70.06
62103;BME280;48077;48.104;11.702;2022-09-09T14:01:21;95317.19;;;17.58;71.43
62103;BME280;48077;48.104;11.702;2022-09-09T14:03:44;95308.97;;;17.44;70.65
62103;BME280;48077;48.104;11.702;2022-09-09T14:06:08;95307.13;;;17.34;71.12
62103;BME280;48077;48.104;11.702;2022-09-09T14:08:32;95299.63;;;17.31;72.14
62103;BME280;48077;48.104;11.702;2022-09-09T14:11:00;95323.06;;;17.31;73.08
62103;BME280;48077;48.104;11.702;2022-09-09T14:13:23;95304.81;;;17.17;73.45
62103;BME280;48077;48.104;11.702;2022-09-09T14:15:48;95310.16;;;17.23;73.64
62103;BME280;48077;48.104;11.702;2022-09-09T14:18:12;95305.88;;;17.22;74.35
62103;BME280;48077;48.104;11.702;2022-09-09T14:20:37;95310.59;;;17.40;74.38
62103;BME280;48077;48.104;11.702;2022-09-09T14:23:00;95301.69;;;17.39;73.52
62103;BME280;48077;48.104;11.702;2022-09-09T14:25:23;95308.44;;;17.42;73.60
62103;BME280;48077;48.104;11.702;2022-09-09T14:27:47;95305.44;;;17.44;74.04
62103;BME280;48077;48.104;11.702;2022-09-09T14:30:10;95313.25;;;17.45;74.02
62103;BME280;48077;48.104;11.702;2022-09-09T14:32:34;95303.28;;;17.46;74.09